sensor_id;sensor_type;location;lat;lon;timestamp;P1;durP1;ratioP1;P2;durP2;ratioP2
46284;SDS011;32018;59.182;18.148;2022-09-09T00:00:22;0.75;;;0.75;;
46284;SDS011;32018;59.182;18.148;2022-09-09T00:05:37;0.20;;;0.20;;
46284;SDS011;32018;59.182;18.148;2022-09-09T00:08:06;0.38;;;0.30;;
46284;SDS011;32018;59.182;18.148;2022-09-09T00:10:37;0.68;;;0.20;;
46284;SDS011;32018;59.182;18.148;2022-09-09T00:13:13;0.10;;;0.10;;
46284;SDS011;32018;59.182;18.148;2022-09-09T00:15:43;0.22;;;0.22;;
46284;SDS011;32018;59.182;18.148;2022-09-09T00:18:31;0.75;;;0.28;;
46284;SDS011;32018;59.182;18.148;2022-09-09T00:21:06;0.20;;;0.20;;
46284;SDS011;32018;59.182;18.148;2022-09-09T00:23:39;0.25;;;0.25;;
46284;SDS011;32018;59.182;18.148;2022-09-09T00:26:20;0.20;;;0.20;;
46284;SDS011;32018;59.182;18.148;2022-09-09T00:28:52;0.57;;;0.20;;
46284;SDS011;32018;59.182;18.148;2022-09-09T00:31:20;1.45;;;0.20;;
46284;SDS011;32018;59.182;18.148;2022-09-09T00:33:47;0.20;;;0.20;;
46284;SDS011;32018;59.182;18.148;2022-09-09T00:36:14;0.20;;;0.20;;
46284;SDS011;32018;59.182;18.148;2022-09-09T00:38:48;0.40;;;0.30;;
46284;SDS011;32018;59.182;18.148;2022-09-09T00:41:19;0.20;;;0.20;;
46284;SDS011;32018;59.182;18.148;2022-09-09T00:43:48;0.40;;;0.30;;
46284;SDS011;32018;59.182;18.148;2022-09-09T00:54:26;0.20;;;0.20;;
46284;SDS011;32018;59.182;18.148;2022-09-09T00:59:28;0.15;;;0.15;;
46284;SDS011;32018;59.182;18.148;2022-09-09T01:01:57;0.30;;;0.30;;
46284;SDS011;32018;59.182;18.148;2022-09-09T01:04:26;0.20;;;0.20;;
46284;SDS011;32018;59.182;18.148;2022-09-09T01:06:57;1.00;;;0.28;;
46284;SDS011;32018;59.182;18.148;2022-09-09T01:09:37;1.55;;;0.20;;
46284;SDS011;32018;59.182;18.148;2022-09-09T01:19:52;0.40;;;0.20;;
46284;SDS011;32018;59.182;18.148;2022-09-09T01:22:34;0.20;;;0.15;;
46284;SDS011;32018;59.182;18.148;2022-09-09T01:27:44;0.13;;;0.13;;
46284;SDS011;32018;59.182;18.148;2022-09-09T01:30:11;0.20;;;0.20;;
46284;SDS011;32018;59.182;18.148;2022-09-09T01:32:45;0.20;;;0.20;;
46284;SDS011;32018;59.182;18.148;2022-09-09T01:35:26;0.30;;;0.30;;
46284;SDS011;32018;59.182;18.148;2022-09-09T01:37:55;0.20;;;0.20;;
46284;SDS011;32018;59.182;18.148;2022-09-09T01:40:20;0.30;;;0.30;;
46284;SDS011;32018;59.182;18.148;2022-09-09T01:42:46;0.20;;;0.20;;
46284;SDS011;32018;59.182;18.148;2022-09-09T01:45:11;0.30;;;0.20;;
46284;SDS011;32018;59.182;18.148;2022-09-09T01:47:37;0.20;;;0.20;;
46284;SDS011;32018;59.182;18.148;2022-09-09T01:50:02;0.20;;;0.20;;
46284;SDS011;32018;59.182;18.148;2022-09-09T01:52:28;0.45;;;0.25;;
46284;SDS011;32018;59.182;18.148;2022-09-09T01:54:53;0.65;;;0.20;;
46284;SDS011;32018;59.182;18.148;2022-09-09T02:02:11;0.30;;;0.25;;
46284;SDS011;32018;59.182;18.148;2022-09-09T02:04:40;0.20;;;0.20;;
46284;SDS011;32018;59.182;18.148;2022-09-09T02:07:07;0.20;;;0.20;;
46284;SDS011;32018;59.182;18.148;2022-09-09T02:09:37;0.30;;;0.30;;
46284;SDS011;32018;59.182;18.148;2022-09-09T02:12:08;0.10;;;0.10;;
46284;SDS011;32018;59.182;18.148;2022-09-09T02:14:38;0.10;;;0.10;;
46284;SDS011;32018;59.182;18.148;2022-09-09T02:17:10;0.20;;;0.20;;
46284;SDS011;32018;59.182;18.148;2022-09-09T02:19:40;0.20;;;0.20;;
46284;SDS011;32018;59.182;18.148;2022-09-09T02:22:10;0.20;;;0.20;;
46284;SDS011;32018;59.182;18.148;2022-09-09T02:24:35;0.30;;;0.20;;
46284;SDS011;32018;59.182;18.148;2022-09-09T02:27:03;0.22;;;0.20;;
46284;SDS011;32018;59.182;18.148;2022-09-09T02:29:36;1.17;;;0.43;;
46284;SDS011;32018;59.182;18.148;2022-09-09T02:32:04;1.75;;;0.30;;
46284;SDS011;32018;59.182;18.148;2022-09-09T02:34:31;0.20;;;0.20;;
46284;SDS011;32018;59.182;18.148;2022-09-09T02:36:58;0.20;;;0.20;;
46284;SDS011;32018;59.182;18.148;2022-09-09T02:39:25;0.10;;;0.10;;
46284;SDS011;32018;59.182;18.148;2022-09-09T02:41:50;0.22;;;0.22;;
46284;SDS011;32018;59.182;18.148;2022-09-09T02:44:17;0.25;;;0.10;;
46284;SDS011;32018;59.182;18.148;2022-09-09T02:56:48;0.10;;;0.10;;
46284;SDS011;32018;59.182;18.148;2022-09-09T02:59:15;0.20;;;0.10;;
46284;SDS011;32018;59.182;18.148;2022-09-09T03:01:41;0.20;;;0.20;;
46284;SDS011;32018;59.182;18.148;2022-09-09T03:04:06;0.10;;;0.10;;
46284;SDS011;32018;59.182;18.148;2022-09-09T03:06:32;0.20;;;0.20;;
46284;SDS011;32018;59.182;18.148;2022-09-09T03:08:57;0.30;;;0.30;;
46284;SDS011;32018;59.182;18.148;2022-09-09T03:11:25;0.40;;;0.20;;
46284;SDS011;32018;59.182;18.148;2022-09-09T03:13:50;0.20;;;0.20;;
46284;SDS011;32018;59.182;18.148;2022-09-09T03:16:16;0.40;;;0.20;;
46284;SDS011;32018;59.182;18.148;2022-09-09T03:18:42;0.20;;;0.20;;
46284;SDS011;32018;59.182;18.148;2022-09-09T03:21:10;0.20;;;0.10;;
46284;SDS011;32018;59.182;18.148;2022-09-09T03:23:36;0.35;;;0.20;;
46284;SDS011;32018;59.182;18.148;2022-09-09T03:26:01;0.10;;;0.10;;
46284;SDS011;32018;59.182;18.148;2022-09-09T03:28:26;0.20;;;0.20;;
46284;SDS011;32018;59.182;18.148;2022-09-09T03:31:02;0.10;;;0.10;;
46284;SDS011;32018;59.182;18.148;2022-09-09T03:33:27;0.10;;;0.10;;
46284;SDS011;32018;59.182;18.148;2022-09-09T03:35:54;0.10;;;0.10;;
46284;SDS011;32018;59.182;18.148;2022-09-09T03:38:22;0.32;;;0.10;;
46284;SDS011;32018;59.182;18.148;2022-09-09T03:40:51;0.15;;;0.10;;
46284;SDS011;32018;59.182;18.148;2022-09-09T03:43:20;0.40;;;0.20;;
46284;SDS011;32018;59.182;18.148;2022-09-09T03:45:46;0.20;;;0.20;;
46284;SDS011;32018;59.182;18.148;2022-09-09T03:48:12;0.30;;;0.30;;
46284;SDS011;32018;59.182;18.148;2022-09-09T03:50:38;0.38;;;0.10;;
46284;SDS011;32018;59.182;18.148;2022-09-09T03:53:03;0.20;;;0.17;;
46284;SDS011;32018;59.182;18.148;2022-09-09T03:55:31;0.10;;;0.10;;
46284;SDS011;32018;59.182;18.148;2022-09-09T03:57:57;0.10;;;0.10;;
46284;SDS011;32018;59.182;18.148;2022-09-09T04:00:22;0.28;;;0.20;;
46284;SDS011;32018;59.182;18.148;2022-09-09T04:02:48;0.30;;;0.20;;
46284;SDS011;32018;59.182;18.148;2022-09-09T04:05:14;0.20;;;0.20;;
46284;SDS011;32018;59.182;18.148;2022-09-09T04:07:40;0.80;;;0.25;;
46284;SDS011;32018;59.182;18.148;2022-09-09T04:10:06;0.98;;;0.20;;
46284;SDS011;32018;59.182;18.148;2022-09-09T04:12:32;0.10;;;0.10;;
46284;SDS011;32018;59.182;18.148;2022-09-09T04:14:57;0.22;;;0.15;;
46284;SDS011;32018;59.182;18.148;2022-09-09T04:17:23;0.20;;;0.17;;
46284;SDS011;32018;59.182;18.148;2022-09-09T04:19:49;0.70;;;0.38;;
46284;SDS011;32018;59.182;18.148;2022-09-09T04:22:14;0.20;;;0.20;;
46284;SDS011;32018;59.182;18.148;2022-09-09T04:24:39;0.28;;;0.15;;
46284;SDS011;32018;59.182;18.148;2022-09-09T04:27:05;4.38;;;0.50;;
46284;SDS011;32018;59.182;18.148;2022-09-09T04:29:30;0.90;;;0.20;;
46284;SDS011;32018;59.182;18.148;2022-09-09T04:31:55;0.43;;;0.20;;
46284;SDS011;32018;59.182;18.148;2022-09-09T04:34:21;0.85;;;0.47;;
46284;SDS011;32018;59.182;18.148;2022-09-09T04:36:46;0.75;;;0.20;;
46284;SDS011;32018;59.182;18.148;2022-09-09T04:39:12;0.38;;;0.28;;
46284;SDS011;32018;59.182;18.148;2022-09-09T04:41:37;0.52;;;0.20;;
46284;SDS011;32018;59.182;18.148;2022-09-09T04:44:02;0.20;;;0.15;;
46284;SDS011;32018;59.182;18.148;2022-09-09T04:46:28;0.35;;;0.20;;
46284;SDS011;32018;59.182;18.148;2022-09-09T04:48:54;0.40;;;0.20;;
46284;SDS011;32018;59.182;18.148;2022-09-09T04:51:19;0.45;;;0.30;;
46284;SDS011;32018;59.182;18.148;2022-09-09T04:53:44;0.45;;;0.10;;
46284;SDS011;32018;59.182;18.148;2022-09-09T04:56:15;0.35;;;0.20;;
46284;SDS011;32018;59.182;18.148;2022-09-09T04:58:41;0.95;;;0.20;;
46284;SDS011;32018;59.182;18.148;2022-09-09T05:01:13;2.05;;;0.30;;
46284;SDS011;32018;59.182;18.148;2022-09-09T05:03:38;1.00;;;0.30;;
46284;SDS011;32018;59.182;18.148;2022-09-09T05:06:05;0.30;;;0.10;;
46284;SDS011;32018;59.182;18.148;2022-09-09T05:08:31;1.30;;;0.20;;
46284;SDS011;32018;59.182;18.148;2022-09-09T05:10:56;1.17;;;0.20;;
46284;SDS011;32018;59.182;18.148;2022-09-09T05:13:22;0.22;;;0.20;;
46284;SDS011;32018;59.182;18.148;2022-09-09T05:15:54;5.10;;;0.40;;
46284;SDS011;32018;59.182;18.148;2022-09-09T05:18:19;0.28;;;0.20;;
46284;SDS011;32018;59.182;18.148;2022-09-09T05:20:44;0.20;;;0.20;;
46284;SDS011;32018;59.182;18.148;2022-09-09T05:23:10;0.28;;;0.10;;
46284;SDS011;32018;59.182;18.148;2022-09-09T05:25:38;1.65;;;0.30;;
46284;SDS011;32018;59.182;18.148;2022-09-09T05:28:03;0.55;;;0.22;;
46284;SDS011;32018;59.182;18.148;2022-09-09T05:30:29;0.30;;;0.20;;
46284;SDS011;32018;59.182;18.148;2022-09-09T05:32:55;0.88;;;0.38;;
46284;SDS011;32018;59.182;18.148;2022-09-09T05:35:21;0.60;;;0.25;;
46284;SDS011;32018;59.182;18.148;2022-09-09T05:37:48;0.40;;;0.20;;
46284;SDS011;32018;59.182;18.148;2022-09-09T05:40:13;0.20;;;0.20;;
46284;SDS011;32018;59.182;18.148;2022-09-09T05:42:38;0.47;;;0.28;;
46284;SDS011;32018;59.182;18.148;2022-09-09T05:45:04;0.30;;;0.20;;
46284;SDS011;32018;59.182;18.148;2022-09-09T05:47:30;0.90;;;0.30;;
46284;SDS011;32018;59.182;18.148;2022-09-09T05:49:55;0.10;;;0.10;;
46284;SDS011;32018;59.182;18.148;2022-09-09T05:52:21;1.10;;;0.20;;
46284;SDS011;32018;59.182;18.148;2022-09-09T05:54:47;0.30;;;0.13;;
46284;SDS011;32018;59.182;18.148;2022-09-09T05:57:12;0.35;;;0.22;;
46284;SDS011;32018;59.182;18.148;2022-09-09T05:59:38;0.15;;;0.15;;
46284;SDS011;32018;59.182;18.148;2022-09-09T06:02:03;0.63;;;0.20;;
46284;SDS011;32018;59.182;18.148;2022-09-09T06:04:28;0.40;;;0.30;;
46284;SDS011;32018;59.182;18.148;2022-09-09T06:06:55;0.25;;;0.25;;
46284;SDS011;32018;59.182;18.148;2022-09-09T06:09:20;1.58;;;0.38;;
46284;SDS011;32018;59.182;18.148;2022-09-09T06:11:45;0.30;;;0.20;;
46284;SDS011;32018;59.182;18.148;2022-09-09T06:14:11;0.20;;;0.20;;
46284;SDS011;32018;59.182;18.148;2022-09-09T06:16:36;0.52;;;0.30;;
46284;SDS011;32018;59.182;18.148;2022-09-09T06:19:08;1.73;;;0.20;;
46284;SDS011;32018;59.182;18.148;2022-09-09T06:21:35;0.20;;;0.20;;
46284;SDS011;32018;59.182;18.148;2022-09-09T06:24:03;0.85;;;0.25;;
46284;SDS011;32018;59.182;18.148;2022-09-09T06:26:29;0.28;;;0.25;;
46284;SDS011;32018;59.182;18.148;2022-09-09T06:28:55;0.50;;;0.20;;
46284;SDS011;32018;59.182;18.148;2022-09-09T06:31:23;0.22;;;0.20;;
46284;SDS011;32018;59.182;18.148;2022-09-09T06:33:49;0.35;;;0.20;;
46284;SDS011;32018;59.182;18.148;2022-09-09T06:36:16;0.57;;;0.30;;
46284;SDS011;32018;59.182;18.148;2022-09-09T06:38:43;0.25;;;0.25;;
46284;SDS011;32018;59.182;18.148;2022-09-09T06:41:09;0.20;;;0.20;;
46284;SDS011;32018;59.182;18.148;2022-09-09T06:43:34;1.50;;;0.30;;
46284;SDS011;32018;59.182;18.148;2022-09-09T06:48:26;0.43;;;0.30;;
46284;SDS011;32018;59.182;18.148;2022-09-09T06:51:05;0.98;;;0.20;;
46284;SDS011;32018;59.182;18.148;2022-09-09T06:53:35;1.85;;;0.30;;
46284;SDS011;32018;59.182;18.148;2022-09-09T06:58:41;2.45;;;0.30;;
46284;SDS011;32018;59.182;18.148;2022-09-09T07:01:10;0.80;;;0.30;;
46284;SDS011;32018;59.182;18.148;2022-09-09T07:03:37;0.35;;;0.20;;
46284;SDS011;32018;59.182;18.148;2022-09-09T07:06:03;0.10;;;0.10;;
46284;SDS011;32018;59.182;18.148;2022-09-09T07:08:29;0.25;;;0.25;;
46284;SDS011;32018;59.182;18.148;2022-09-09T07:11:01;0.65;;;0.20;;
46284;SDS011;32018;59.182;18.148;2022-09-09T07:13:26;1.40;;;0.30;;
46284;SDS011;32018;59.182;18.148;2022-09-09T07:15:52;1.17;;;0.30;;
46284;SDS011;32018;59.182;18.148;2022-09-09T07:18:18;1.20;;;0.45;;
46284;SDS011;32018;59.182;18.148;2022-09-09T07:20:52;0.28;;;0.20;;
46284;SDS011;32018;59.182;18.148;2022-09-09T07:23:17;0.95;;;0.40;;
46284;SDS011;32018;59.182;18.148;2022-09-09T07:25:45;0.20;;;0.20;;
46284;SDS011;32018;59.182;18.148;2022-09-09T07:28:11;0.95;;;0.25;;
46284;SDS011;32018;59.182;18.148;2022-09-09T07:30:36;0.60;;;0.17;;
46284;SDS011;32018;59.182;18.148;2022-09-09T07:33:02;0.20;;;0.20;;
46284;SDS011;32018;59.182;18.148;2022-09-09T07:35:28;0.52;;;0.30;;
46284;SDS011;32018;59.182;18.148;2022-09-09T07:37:53;1.15;;;0.20;;
46284;SDS011;32018;59.182;18.148;2022-09-09T07:40:19;0.30;;;0.30;;
46284;SDS011;32018;59.182;18.148;2022-09-09T07:42:46;0.20;;;0.20;;
46284;SDS011;32018;59.182;18.148;2022-09-09T07:45:12;0.20;;;0.10;;
46284;SDS011;32018;59.182;18.148;2022-09-09T07:47:37;0.43;;;0.30;;
46284;SDS011;32018;59.182;18.148;2022-09-09T07:50:02;0.90;;;0.28;;
46284;SDS011;32018;59.182;18.148;2022-09-09T07:52:28;0.30;;;0.30;;
46284;SDS011;32018;59.182;18.148;2022-09-09T07:54:53;2.42;;;0.30;;
46284;SDS011;32018;59.182;18.148;2022-09-09T07:57:18;0.25;;;0.10;;
46284;SDS011;32018;59.182;18.148;2022-09-09T07:59:44;0.75;;;0.38;;
46284;SDS011;32018;59.182;18.148;2022-09-09T08:02:10;1.13;;;0.40;;
46284;SDS011;32018;59.182;18.148;2022-09-09T08:04:36;0.73;;;0.20;;
46284;SDS011;32018;59.182;18.148;2022-09-09T08:07:02;1.10;;;0.40;;
46284;SDS011;32018;59.182;18.148;2022-09-09T08:09:28;0.25;;;0.10;;
46284;SDS011;32018;59.182;18.148;2022-09-09T08:11:54;1.15;;;0.65;;
46284;SDS011;32018;59.182;18.148;2022-09-09T08:14:21;2.45;;;1.00;;
46284;SDS011;32018;59.182;18.148;2022-09-09T08:16:48;2.47;;;1.50;;
46284;SDS011;32018;59.182;18.148;2022-09-09T08:19:14;1.30;;;1.08;;
46284;SDS011;32018;59.182;18.148;2022-09-09T08:21:42;1.80;;;0.65;;
46284;SDS011;32018;59.182;18.148;2022-09-09T08:24:08;0.55;;;0.55;;
46284;SDS011;32018;59.182;18.148;2022-09-09T08:26:39;0.32;;;0.30;;
46284;SDS011;32018;59.182;18.148;2022-09-09T08:29:07;2.08;;;0.35;;
46284;SDS011;32018;59.182;18.148;2022-09-09T08:31:33;0.30;;;0.30;;
46284;SDS011;32018;59.182;18.148;2022-09-09T08:33:59;0.93;;;0.35;;
46284;SDS011;32018;59.182;18.148;2022-09-09T08:36:25;0.52;;;0.20;;
46284;SDS011;32018;59.182;18.148;2022-09-09T08:38:52;0.38;;;0.30;;
46284;SDS011;32018;59.182;18.148;2022-09-09T08:44:07;1.05;;;0.40;;
46284;SDS011;32018;59.182;18.148;2022-09-09T08:46:39;2.08;;;0.35;;
46284;SDS011;32018;59.182;18.148;2022-09-09T08:49:24;0.40;;;0.40;;
46284;SDS011;32018;59.182;18.148;2022-09-09T08:51:57;0.30;;;0.20;;
46284;SDS011;32018;59.182;18.148;2022-09-09T08:54:23;0.30;;;0.28;;
46284;SDS011;32018;59.182;18.148;2022-09-09T08:56:48;0.95;;;0.30;;
46284;SDS011;32018;59.182;18.148;2022-09-09T08:59:15;0.35;;;0.35;;
46284;SDS011;32018;59.182;18.148;2022-09-09T09:02:04;1.27;;;0.30;;
46284;SDS011;32018;59.182;18.148;2022-09-09T09:04:45;2.70;;;0.93;;
46284;SDS011;32018;59.182;18.148;2022-09-09T09:12:24;1.63;;;0.80;;
46284;SDS011;32018;59.182;18.148;2022-09-09T09:14:50;0.60;;;0.45;;
46284;SDS011;32018;59.182;18.148;2022-09-09T09:17:17;3.42;;;3.08;;
46284;SDS011;32018;59.182;18.148;2022-09-09T09:19:44;4.80;;;4.30;;
46284;SDS011;32018;59.182;18.148;2022-09-09T09:22:18;6.97;;;6.32;;
46284;SDS011;32018;59.182;18.148;2022-09-09T09:29:54;1.60;;;0.98;;
46284;SDS011;32018;59.182;18.148;2022-09-09T09:32:21;5.95;;;5.45;;
46284;SDS011;32018;59.182;18.148;2022-09-09T09:34:57;3.33;;;1.85;;
46284;SDS011;32018;59.182;18.148;2022-09-09T09:37:30;2.33;;;1.15;;
46284;SDS011;32018;59.182;18.148;2022-09-09T09:39:56;0.70;;;0.70;;
46284;SDS011;32018;59.182;18.148;2022-09-09T09:42:21;1.30;;;1.10;;
46284;SDS011;32018;59.182;18.148;2022-09-09T09:44:47;2.13;;;1.42;;
46284;SDS011;32018;59.182;18.148;2022-09-09T09:52:32;0.65;;;0.50;;
46284;SDS011;32018;59.182;18.148;2022-09-09T09:54:59;3.13;;;0.65;;
46284;SDS011;32018;59.182;18.148;2022-09-09T09:57:28;0.75;;;0.38;;
46284;SDS011;32018;59.182;18.148;2022-09-09T10:02:40;0.77;;;0.77;;
46284;SDS011;32018;59.182;18.148;2022-09-09T10:07:39;4.00;;;3.63;;
46284;SDS011;32018;59.182;18.148;2022-09-09T10:10:05;4.47;;;2.17;;
46284;SDS011;32018;59.182;18.148;2022-09-09T10:12:43;7.55;;;2.13;;
46284;SDS011;32018;59.182;18.148;2022-09-09T10:17:48;1.60;;;1.13;;
46284;SDS011;32018;59.182;18.148;2022-09-09T10:23:07;9.60;;;3.67;;
46284;SDS011;32018;59.182;18.148;2022-09-09T10:25:42;1.27;;;0.82;;
46284;SDS011;32018;59.182;18.148;2022-09-09T10:38:17;1.00;;;0.45;;
46284;SDS011;32018;59.182;18.148;2022-09-09T10:48:29;1.17;;;0.65;;
46284;SDS011;32018;59.182;18.148;2022-09-09T10:51:09;0.60;;;0.50;;
46284;SDS011;32018;59.182;18.148;2022-09-09T10:53:51;0.40;;;0.40;;
46284;SDS011;32018;59.182;18.148;2022-09-09T10:56:18;1.60;;;0.60;;
46284;SDS011;32018;59.182;18.148;2022-09-09T11:01:13;0.55;;;0.40;;
46284;SDS011;32018;59.182;18.148;2022-09-09T11:03:41;0.77;;;0.50;;
46284;SDS011;32018;59.182;18.148;2022-09-09T11:06:11;0.75;;;0.50;;
46284;SDS011;32018;59.182;18.148;2022-09-09T11:08:39;0.90;;;0.80;;
46284;SDS011;32018;59.182;18.148;2022-09-09T11:11:15;0.40;;;0.40;;
46284;SDS011;32018;59.182;18.148;2022-09-09T11:13:47;1.92;;;0.50;;
46284;SDS011;32018;59.182;18.148;2022-09-09T11:19:02;0.85;;;0.60;;
46284;SDS011;32018;59.182;18.148;2022-09-09T11:21:33;0.52;;;0.50;;
46284;SDS011;32018;59.182;18.148;2022-09-09T11:24:10;0.30;;;0.30;;
46284;SDS011;32018;59.182;18.148;2022-09-09T11:26:39;0.90;;;0.40;;
46284;SDS011;32018;59.182;18.148;2022-09-09T11:41:49;1.10;;;1.00;;
46284;SDS011;32018;59.182;18.148;2022-09-09T11:44:19;3.22;;;0.60;;
46284;SDS011;32018;59.182;18.148;2022-09-09T11:46:49;0.82;;;0.50;;
46284;SDS011;32018;59.182;18.148;2022-09-09T11:49:26;0.40;;;0.30;;
46284;SDS011;32018;59.182;18.148;2022-09-09T11:51:53;0.30;;;0.30;;
46284;SDS011;32018;59.182;18.148;2022-09-09T11:54:29;1.23;;;0.82;;
46284;SDS011;32018;59.182;18.148;2022-09-09T11:56:55;1.75;;;0.55;;
46284;SDS011;32018;59.182;18.148;2022-09-09T12:01:50;1.15;;;0.70;;
46284;SDS011;32018;59.182;18.148;2022-09-09T12:06:58;0.60;;;0.60;;
46284;SDS011;32018;59.182;18.148;2022-09-09T12:17:26;0.40;;;0.40;;
46284;SDS011;32018;59.182;18.148;2022-09-09T12:27:57;0.65;;;0.45;;
46284;SDS011;32018;59.182;18.148;2022-09-09T12:30:31;0.38;;;0.38;;
46284;SDS011;32018;59.182;18.148;2022-09-09T12:33:06;0.40;;;0.35;;
46284;SDS011;32018;59.182;18.148;2022-09-09T12:35:33;0.60;;;0.57;;
46284;SDS011;32018;59.182;18.148;2022-09-09T12:38:00;1.27;;;0.50;;
46284;SDS011;32018;59.182;18.148;2022-09-09T12:40:32;0.50;;;0.40;;
46284;SDS011;32018;59.182;18.148;2022-09-09T12:43:00;1.25;;;0.30;;
46284;SDS011;32018;59.182;18.148;2022-09-09T12:45:27;1.33;;;0.40;;
46284;SDS011;32018;59.182;18.148;2022-09-09T12:50:20;1.27;;;0.60;;
46284;SDS011;32018;59.182;18.148;2022-09-09T12:52:46;1.98;;;0.55;;
46284;SDS011;32018;59.182;18.148;2022-09-09T12:55:16;0.68;;;0.50;;
46284;SDS011;32018;59.182;18.148;2022-09-09T12:57:42;0.50;;;0.50;;
46284;SDS011;32018;59.182;18.148;2022-09-09T13:00:13;0.47;;;0.45;;
46284;SDS011;32018;59.182;18.148;2022-09-09T13:02:46;0.73;;;0.30;;
46284;SDS011;32018;59.182;18.148;2022-09-09T13:05:16;0.30;;;0.30;;
46284;SDS011;32018;59.182;18.148;2022-09-09T13:07:42;0.30;;;0.30;;
46284;SDS011;32018;59.182;18.148;2022-09-09T13:10:10;0.50;;;0.50;;
46284;SDS011;32018;59.182;18.148;2022-09-09T13:12:36;1.58;;;0.50;;
46284;SDS011;32018;59.182;18.148;2022-09-09T13:15:01;1.42;;;0.70;;
46284;SDS011;32018;59.182;18.148;2022-09-09T13:17:27;0.32;;;0.32;;
46284;SDS011;32018;59.182;18.148;2022-09-09T13:19:55;0.40;;;0.40;;
46284;SDS011;32018;59.182;18.148;2022-09-09T13:22:23;0.52;;;0.43;;
46284;SDS011;32018;59.182;18.148;2022-09-09T13:24:59;0.90;;;0.50;;
46284;SDS011;32018;59.182;18.148;2022-09-09T13:29:53;0.30;;;0.30;;
46284;SDS011;32018;59.182;18.148;2022-09-09T13:32:22;1.52;;;0.40;;
46284;SDS011;32018;59.182;18.148;2022-09-09T13:34:55;0.30;;;0.30;;
46284;SDS011;32018;59.182;18.148;2022-09-09T13:37:26;0.43;;;0.28;;
46284;SDS011;32018;59.182;18.148;2022-09-09T13:39:53;0.40;;;0.40;;
46284;SDS011;32018;59.182;18.148;2022-09-09T13:42:24;2.50;;;0.60;;
46284;SDS011;32018;59.182;18.148;2022-09-09T13:44:50;0.45;;;0.40;;
46284;SDS011;32018;59.182;18.148;2022-09-09T13:47:17;0.60;;;0.43;;
46284;SDS011;32018;59.182;18.148;2022-09-09T13:49:44;0.63;;;0.40;;
46284;SDS011;32018;59.182;18.148;2022-09-09T13:52:14;0.95;;;0.50;;
46284;SDS011;32018;59.182;18.148;2022-09-09T13:54:41;0.20;;;0.20;;
46284;SDS011;32018;59.182;18.148;2022-09-09T13:57:17;0.60;;;0.60;;
46284;SDS011;32018;59.182;18.148;2022-09-09T13:59:44;0.52;;;0.40;;
46284;SDS011;32018;59.182;18.148;2022-09-09T14:02:10;0.65;;;0.50;;
46284;SDS011;32018;59.182;18.148;2022-09-09T14:04:35;0.77;;;0.30;;
46284;SDS011;32018;59.182;18.148;2022-09-09T14:07:01;0.43;;;0.40;;
46284;SDS011;32018;59.182;18.148;2022-09-09T14:09:26;0.93;;;0.52;;
46284;SDS011;32018;59.182;18.148;2022-09-09T14:11:52;0.85;;;0.50;;
46284;SDS011;32018;59.182;18.148;2022-09-09T14:14:17;0.63;;;0.45;;
46284;SDS011;32018;59.182;18.148;2022-09-09T14:16:42;0.60;;;0.40;;
46284;SDS011;32018;59.182;18.148;2022-09-09T14:19:08;1.08;;;0.30;;
46284;SDS011;32018;59.182;18.148;2022-09-09T14:21:34;0.47;;;0.30;;
46284;SDS011;32018;59.182;18.148;2022-09-09T14:23:59;0.60;;;0.52;;
46284;SDS011;32018;59.182;18.148;2022-09-09T14:26:25;0.43;;;0.30;;
46284;SDS011;32018;59.182;18.148;2022-09-09T14:28:51;0.75;;;0.43;;
46284;SDS011;32018;59.182;18.148;2022-09-09T14:31:16;0.63;;;0.30;;
46284;SDS011;32018;59.182;18.148;2022-09-09T14:33:43;1.63;;;0.40;;
46284;SDS011;32018;59.182;18.148;2022-09-09T14:36:08;0.22;;;0.22;;
46284;SDS011;32018;59.182;18.148;2022-09-09T14:38:35;0.40;;;0.38;;
46284;SDS011;32018;59.182;18.148;2022-09-09T14:41:05;0.55;;;0.32;;
46284;SDS011;32018;59.182;18.148;2022-09-09T14:43:30;1.23;;;0.45;;
46284;SDS011;32018;59.182;18.148;2022-09-09T14:45:57;0.40;;;0.30;;
46284;SDS011;32018;59.182;18.148;2022-09-09T14:48:22;0.30;;;0.30;;
46284;SDS011;32018;59.182;18.148;2022-09-09T14:50:48;0.40;;;0.40;;
46284;SDS011;32018;59.182;18.148;2022-09-09T14:53:15;0.50;;;0.50;;
46284;SDS011;32018;59.182;18.148;2022-09-09T14:55:41;1.27;;;0.40;;
46284;SDS011;32018;59.182;18.148;2022-09-09T14:58:07;1.60;;;0.85;;
46284;SDS011;32018;59.182;18.148;2022-09-09T15:00:32;1.58;;;0.82;;
46284;SDS011;32018;59.182;18.148;2022-09-09T15:02:58;0.38;;;0.38;;
46284;SDS011;32018;59.182;18.148;2022-09-09T15:05:23;1.48;;;0.98;;
46284;SDS011;32018;59.182;18.148;2022-09-09T15:07:49;0.47;;;0.47;;
46284;SDS011;32018;59.182;18.148;2022-09-09T15:10:14;0.65;;;0.65;;
46284;SDS011;32018;59.182;18.148;2022-09-09T15:12:40;2.38;;;2.10;;
46284;SDS011;32018;59.182;18.148;2022-09-09T15:15:07;1.02;;;0.88;;
46284;SDS011;32018;59.182;18.148;2022-09-09T15:17:32;0.90;;;0.43;;
46284;SDS011;32018;59.182;18.148;2022-09-09T15:19:57;2.97;;;1.45;;
46284;SDS011;32018;59.182;18.148;2022-09-09T15:22:23;1.98;;;1.08;;
46284;SDS011;32018;59.182;18.148;2022-09-09T15:24:49;0.60;;;0.50;;
46284;SDS011;32018;59.182;18.148;2022-09-09T15:27:14;1.52;;;0.40;;
46284;SDS011;32018;59.182;18.148;2022-09-09T15:29:40;0.47;;;0.47;;
46284;SDS011;32018;59.182;18.148;2022-09-09T15:32:06;1.85;;;0.50;;
46284;SDS011;32018;59.182;18.148;2022-09-09T15:34:31;0.50;;;0.50;;
46284;SDS011;32018;59.182;18.148;2022-09-09T15:36:57;0.50;;;0.50;;
46284;SDS011;32018;59.182;18.148;2022-09-09T15:39:22;0.40;;;0.30;;
46284;SDS011;32018;59.182;18.148;2022-09-09T15:41:48;0.95;;;0.90;;
46284;SDS011;32018;59.182;18.148;2022-09-09T15:44:14;0.90;;;0.70;;
46284;SDS011;32018;59.182;18.148;2022-09-09T15:49:10;0.93;;;0.90;;
46284;SDS011;32018;59.182;18.148;2022-09-09T15:51:36;1.25;;;1.15;;
46284;SDS011;32018;59.182;18.148;2022-09-09T15:54:02;1.17;;;0.65;;
46284;SDS011;32018;59.182;18.148;2022-09-09T15:56:29;0.75;;;0.63;;
46284;SDS011;32018;59.182;18.148;2022-09-09T15:59:00;1.30;;;0.68;;
46284;SDS011;32018;59.182;18.148;2022-09-09T16:01:27;1.48;;;1.05;;
46284;SDS011;32018;59.182;18.148;2022-09-09T16:03:52;0.40;;;0.40;;
46284;SDS011;32018;59.182;18.148;2022-09-09T16:06:19;0.70;;;0.70;;
46284;SDS011;32018;59.182;18.148;2022-09-09T16:08:46;1.42;;;1.13;;
46284;SDS011;32018;59.182;18.148;2022-09-09T16:11:14;7.40;;;6.72;;
46284;SDS011;32018;59.182;18.148;2022-09-09T16:13:40;5.90;;;5.20;;
46284;SDS011;32018;59.182;18.148;2022-09-09T16:16:06;3.40;;;3.10;;
46284;SDS011;32018;59.182;18.148;2022-09-09T16:18:33;1.17;;;0.73;;
46284;SDS011;32018;59.182;18.148;2022-09-09T16:20:58;0.63;;;0.60;;
46284;SDS011;32018;59.182;18.148;2022-09-09T16:23:25;0.60;;;0.60;;
46284;SDS011;32018;59.182;18.148;2022-09-09T16:26:00;0.50;;;0.50;;
46284;SDS011;32018;59.182;18.148;2022-09-09T16:28:25;1.05;;;0.63;;
46284;SDS011;32018;59.182;18.148;2022-09-09T16:30:51;0.50;;;0.50;;
46284;SDS011;32018;59.182;18.148;2022-09-09T16:33:16;1.30;;;0.50;;
46284;SDS011;32018;59.182;18.148;2022-09-09T16:35:42;0.43;;;0.43;;
46284;SDS011;32018;59.182;18.148;2022-09-09T16:38:08;0.57;;;0.45;;
46284;SDS011;32018;59.182;18.148;2022-09-09T16:40:33;0.60;;;0.60;;
46284;SDS011;32018;59.182;18.148;2022-09-09T16:43:00;0.88;;;0.60;;
46284;SDS011;32018;59.182;18.148;2022-09-09T16:45:26;1.58;;;0.60;;
46284;SDS011;32018;59.182;18.148;2022-09-09T16:47:51;1.00;;;0.70;;
46284;SDS011;32018;59.182;18.148;2022-09-09T16:50:16;0.50;;;0.50;;
46284;SDS011;32018;59.182;18.148;2022-09-09T16:52:42;0.50;;;0.50;;